createdAt,value
2022-12-16T00:01:36.738Z,43.47
2022-12-16T00:04:04.744Z,40.80
2022-12-16T00:06:34.788Z,41.73
2022-12-16T00:09:04.029Z,41.60
2022-12-16T00:11:32.702Z,40.60
2022-12-16T00:14:00.547Z,40.13
2022-12-16T00:16:28.656Z,42.47
2022-12-16T00:18:56.444Z,43.10
2022-12-16T00:21:28.638Z,39.20
2022-12-16T00:23:56.960Z,41.90
2022-12-16T00:26:26.169Z,41.97
2022-12-16T00:28:53.927Z,45.93
2022-12-16T00:31:22.693Z,40.43
2022-12-16T00:33:50.500Z,39.13
2022-12-16T00:36:18.312Z,41.40
2022-12-16T00:38:46.070Z,43.00
2022-12-16T00:41:13.823Z,38.07
2022-12-16T00:43:42.924Z,41.23
2022-12-16T00:46:10.688Z,43.43
2022-12-16T00:48:38.458Z,41.57
2022-12-16T00:51:07.085Z,42.87
2022-12-16T00:53:35.910Z,39.37
2022-12-16T00:56:05.090Z,40.40
2022-12-16T00:58:32.952Z,40.40
2022-12-16T01:01:02.421Z,39.80
2022-12-16T01:03:30.348Z,38.20
2022-12-16T01:05:58.407Z,41.93
2022-12-16T01:08:26.316Z,40.33
2022-12-16T01:10:56.673Z,39.70
2022-12-16T01:13:25.625Z,38.93
2022-12-16T01:15:53.396Z,36.07
2022-12-16T01:18:22.804Z,37.63
2022-12-16T01:20:50.505Z,41.13
2022-12-16T01:23:18.307Z,41.60
2022-12-16T01:25:46.054Z,40.00
2022-12-16T01:28:13.833Z,41.80
2022-12-16T01:30:41.620Z,38.20
2022-12-16T01:33:10.756Z,39.23
2022-12-16T01:35:56.280Z,39.00
2022-12-16T01:38:24.620Z,35.13
2022-12-16T01:40:52.615Z,36.13
2022-12-16T01:43:26.720Z,37.13
2022-12-16T01:45:59.039Z,37.80
2022-12-16T01:48:38.614Z,36.87
2022-12-16T01:51:12.980Z,38.10
2022-12-16T01:56:32.886Z,34.67
2022-12-16T01:59:01.603Z,36.13
2022-12-16T02:01:30.114Z,40.33
2022-12-16T02:04:01.725Z,38.63
2022-12-16T02:06:31.204Z,38.27
2022-12-16T02:09:01.975Z,37.33
2022-12-16T02:15:09.351Z,41.43
2022-12-16T02:17:46.341Z,37.50
2022-12-16T02:20:47.143Z,34.87
2022-12-16T02:23:35.985Z,36.90
2022-12-16T02:26:29.287Z,37.00
2022-12-16T02:29:19.390Z,39.77
2022-12-16T02:31:55.264Z,34.97
2022-12-16T02:34:31.597Z,36.23
2022-12-16T02:37:12.121Z,36.00
2022-12-16T02:39:45.773Z,38.00
2022-12-16T02:42:18.834Z,39.23
2022-12-16T02:47:41.259Z,39.43
2022-12-16T02:50:19.664Z,35.63
2022-12-16T02:52:47.736Z,41.33
2022-12-16T02:55:16.096Z,36.93
2022-12-16T02:58:07.680Z,39.30
2022-12-16T03:03:38.112Z,39.17
2022-12-16T03:06:07.093Z,37.37
2022-12-16T03:08:38.845Z,38.50
2022-12-16T03:11:08.192Z,37.97
2022-12-16T03:13:40.507Z,36.13
2022-12-16T03:16:12.047Z,38.37
2022-12-16T03:21:35.445Z,38.27
2022-12-16T03:24:07.021Z,39.63
2022-12-16T03:26:40.162Z,35.37
2022-12-16T03:29:12.936Z,37.27
2022-12-16T03:31:45.448Z,36.80
2022-12-16T03:37:10.534Z,35.03
2022-12-16T03:39:43.717Z,34.63
2022-12-16T03:42:14.987Z,39.27
2022-12-16T03:44:44.407Z,34.93
2022-12-16T03:47:14.956Z,37.53
2022-12-16T03:49:47.506Z,37.60
2022-12-16T03:55:00.402Z,35.20
2022-12-16T03:57:28.180Z,36.57
2022-12-16T03:59:55.857Z,34.80
2022-12-16T04:02:23.768Z,34.23
2022-12-16T04:04:52.965Z,35.10
2022-12-16T04:10:10.319Z,34.30
2022-12-16T04:12:55.331Z,36.97
2022-12-16T04:15:40.667Z,35.90
2022-12-16T04:18:33.623Z,37.87
2022-12-16T04:21:21.277Z,34.37
2022-12-16T04:24:10.249Z,32.17
2022-12-16T04:26:59.529Z,33.43
2022-12-16T04:29:27.274Z,33.67
2022-12-16T04:31:55.172Z,31.60
2022-12-16T04:34:29.338Z,34.20
2022-12-16T04:37:17.841Z,32.27
2022-12-16T04:40:03.399Z,33.23
2022-12-16T04:45:51.968Z,33.90
2022-12-16T04:48:37.109Z,35.93
2022-12-16T04:51:22.390Z,37.50
2022-12-16T04:54:14.228Z,34.87
2022-12-16T04:56:59.737Z,36.13
2022-12-16T05:00:00.524Z,36.43
2022-12-16T05:02:45.798Z,34.97
2022-12-16T05:05:30.945Z,33.77
2022-12-16T05:08:30.876Z,36.13
2022-12-16T05:11:17.513Z,36.37
2022-12-16T05:14:02.829Z,34.13
2022-12-16T05:16:48.285Z,37.40
2022-12-16T05:19:33.680Z,36.23
2022-12-16T05:22:18.820Z,37.17
2022-12-16T05:25:04.119Z,35.60
2022-12-16T05:27:50.858Z,35.63
2022-12-16T05:33:38.976Z,35.13
2022-12-16T05:36:24.409Z,33.30
2022-12-16T05:39:10.492Z,35.10
2022-12-16T05:41:55.828Z,33.60
2022-12-16T05:44:42.889Z,35.00
2022-12-16T05:47:29.008Z,33.83
2022-12-16T05:50:14.202Z,35.07
2022-12-16T05:53:00.081Z,37.63
2022-12-16T05:55:45.356Z,35.17
2022-12-16T05:58:30.890Z,40.07
2022-12-16T06:01:17.428Z,33.67
2022-12-16T06:04:02.879Z,33.47
2022-12-16T06:06:48.166Z,37.97
2022-12-16T06:09:33.261Z,34.73
2022-12-16T06:12:18.403Z,35.30
2022-12-16T06:15:03.850Z,37.93
2022-12-16T06:17:50.295Z,32.20
2022-12-16T06:20:35.445Z,34.40
2022-12-16T06:23:24.108Z,37.43
2022-12-16T06:26:10.718Z,38.30
2022-12-16T06:28:55.981Z,34.40
2022-12-16T06:31:41.427Z,34.47
2022-12-16T06:34:28.001Z,35.67
2022-12-16T06:37:13.295Z,38.40
2022-12-16T06:39:58.405Z,35.20
2022-12-16T06:42:43.739Z,36.53
2022-12-16T06:45:34.315Z,41.87
2022-12-16T06:48:19.920Z,38.30
2022-12-16T06:51:06.702Z,36.47
2022-12-16T06:53:51.707Z,33.63
2022-12-16T06:56:37.030Z,34.87
2022-12-16T06:59:22.497Z,35.37
2022-12-16T07:02:07.539Z,35.90
2022-12-16T07:04:52.592Z,36.70
2022-12-16T07:07:39.213Z,38.93
2022-12-16T07:10:25.281Z,33.37
2022-12-16T07:13:10.634Z,36.27
2022-12-16T07:15:56.094Z,36.47
2022-12-16T07:18:41.141Z,35.47
2022-12-16T07:21:26.232Z,40.57
2022-12-16T07:24:12.797Z,37.63
2022-12-16T07:26:58.138Z,35.00
2022-12-16T07:29:43.286Z,33.13
2022-12-16T07:32:28.701Z,34.80
2022-12-16T07:35:13.772Z,33.40
2022-12-16T07:37:59.371Z,32.53
2022-12-16T07:40:46.208Z,34.20
2022-12-16T07:43:31.694Z,37.93
2022-12-16T07:46:17.227Z,42.67
2022-12-16T07:49:07.740Z,36.53
2022-12-16T07:51:53.085Z,36.63
2022-12-16T07:54:38.380Z,37.60
2022-12-16T07:57:25.173Z,35.50
2022-12-16T08:00:10.598Z,39.60
2022-12-16T08:02:58.945Z,35.20
2022-12-16T08:05:44.121Z,39.43
2022-12-16T08:08:29.483Z,43.97
2022-12-16T08:11:14.790Z,38.73
2022-12-16T08:14:01.340Z,40.80
2022-12-16T08:16:46.753Z,36.70
2022-12-16T08:19:31.949Z,39.43
2022-12-16T08:22:28.526Z,33.53
2022-12-16T08:25:13.774Z,39.27
2022-12-16T08:27:59.158Z,42.70
2022-12-16T08:30:45.838Z,40.67
2022-12-16T08:33:31.093Z,36.03
2022-12-16T08:36:31.602Z,40.77
2022-12-16T08:39:22.188Z,36.90
2022-12-16T08:42:07.137Z,40.40
2022-12-16T08:44:52.469Z,37.73
2022-12-16T08:47:39.528Z,33.63
2022-12-16T08:50:25.779Z,35.57
2022-12-16T08:53:10.984Z,31.73
2022-12-16T08:55:56.406Z,33.83
2022-12-16T08:58:53.315Z,31.90
2022-12-16T09:01:41.161Z,35.00
2022-12-16T09:04:27.949Z,35.93
2022-12-16T09:07:13.129Z,34.20
2022-12-16T09:09:58.215Z,37.77
2022-12-16T09:12:43.642Z,35.10
2022-12-16T09:15:29.047Z,36.53
2022-12-16T09:18:11.542Z,39.40
2022-12-16T09:20:58.277Z,35.33
2022-12-16T09:23:43.669Z,37.43
2022-12-16T09:26:29.216Z,34.03
2022-12-16T09:29:14.329Z,39.90
2022-12-16T09:31:59.667Z,43.87
2022-12-16T09:34:44.748Z,44.90
2022-12-16T09:37:31.603Z,44.17
2022-12-16T09:40:16.781Z,51.50
2022-12-16T09:43:08.733Z,49.30
2022-12-16T09:46:02.832Z,45.53
2022-12-16T09:48:54.088Z,51.13
2022-12-16T09:51:39.973Z,50.23
2022-12-16T09:54:30.538Z,45.53
2022-12-16T09:57:18.356Z,52.63
2022-12-16T10:00:08.446Z,48.37
2022-12-16T10:02:54.169Z,50.03
2022-12-16T10:05:54.896Z,52.10
2022-12-16T10:08:47.867Z,51.33
2022-12-16T10:11:40.989Z,47.90
2022-12-16T10:14:31.642Z,52.47
2022-12-16T10:17:27.569Z,48.97
2022-12-16T10:20:19.764Z,46.77
2022-12-16T10:23:15.816Z,51.10
2022-12-16T10:26:08.417Z,51.87
2022-12-16T10:29:03.663Z,50.83
2022-12-16T10:31:49.708Z,48.80
2022-12-16T10:34:38.794Z,56.27
2022-12-16T10:37:23.960Z,49.43
2022-12-16T10:40:16.447Z,59.20
2022-12-16T10:43:08.130Z,47.67
2022-12-16T10:46:00.399Z,56.97
2022-12-16T10:48:54.974Z,53.43
2022-12-16T10:51:39.809Z,55.57
2022-12-16T10:54:46.812Z,55.73
2022-12-16T10:57:37.603Z,54.07
2022-12-16T11:00:32.104Z,57.67
2022-12-16T11:03:36.163Z,50.97
2022-12-16T11:06:22.101Z,53.60
2022-12-16T11:09:07.523Z,49.90
2022-12-16T11:11:52.825Z,59.27
2022-12-16T11:14:59.502Z,51.23
2022-12-16T11:17:45.490Z,60.03
2022-12-16T11:20:35.273Z,49.50
2022-12-16T11:23:38.385Z,55.87
2022-12-16T11:26:27.747Z,51.57
2022-12-16T11:29:30.770Z,49.17
2022-12-16T11:32:20.392Z,54.50
2022-12-16T11:35:11.560Z,52.10
2022-12-16T11:38:00.445Z,50.80
2022-12-16T11:40:47.943Z,54.17
2022-12-16T11:43:36.083Z,54.63
2022-12-16T11:46:28.054Z,51.17
2022-12-16T11:49:23.424Z,49.50
2022-12-16T11:52:35.867Z,53.00
2022-12-16T11:55:56.058Z,47.70
2022-12-16T11:58:42.445Z,51.30
2022-12-16T12:01:34.227Z,51.43
2022-12-16T12:04:19.497Z,48.23
2022-12-16T12:07:22.285Z,45.30
2022-12-16T12:10:16.495Z,45.47
2022-12-16T12:13:08.458Z,54.73
2022-12-16T12:16:02.213Z,46.93
2022-12-16T12:19:01.512Z,51.13
2022-12-16T12:21:53.987Z,44.10
2022-12-16T12:24:56.279Z,52.17
2022-12-16T12:27:49.649Z,50.20
2022-12-16T12:30:44.247Z,47.00
2022-12-16T12:33:45.191Z,49.20
2022-12-16T12:36:38.268Z,50.70
2022-12-16T12:39:36.516Z,45.57
2022-12-16T12:42:35.193Z,51.07
2022-12-16T12:45:42.023Z,50.07
2022-12-16T12:48:33.671Z,52.83
2022-12-16T12:51:26.219Z,54.77
2022-12-16T12:54:21.926Z,57.20
2022-12-16T12:57:10.351Z,52.30
2022-12-16T13:00:08.186Z,49.73
2022-12-16T13:03:06.974Z,54.53
2022-12-16T13:05:55.670Z,54.90
2022-12-16T13:08:57.918Z,54.60
2022-12-16T13:11:43.429Z,54.63
2022-12-16T13:15:02.720Z,50.43
2022-12-16T13:17:47.866Z,49.77
2022-12-16T13:20:56.713Z,47.70
2022-12-16T13:23:51.514Z,48.80
2022-12-16T13:26:38.799Z,43.93
2022-12-16T13:29:36.112Z,47.70
2022-12-16T13:32:41.750Z,51.97
2022-12-16T13:35:45.620Z,46.27
2022-12-16T13:38:40.718Z,55.00
2022-12-16T13:42:01.045Z,54.10
2022-12-16T13:45:14.254Z,52.03
2022-12-16T13:48:18.646Z,65.53
2022-12-16T13:51:18.928Z,63.97
2022-12-16T13:54:10.311Z,62.87
2022-12-16T13:57:03.888Z,69.27
2022-12-16T13:59:51.168Z,63.87
2022-12-16T14:02:44.875Z,69.27
2022-12-16T14:05:38.356Z,61.37
2022-12-16T14:08:29.875Z,66.50
2022-12-16T14:11:19.884Z,60.37
2022-12-16T14:14:15.681Z,66.53
2022-12-16T14:17:09.447Z,64.07
2022-12-16T14:20:10.481Z,60.33
2022-12-16T14:23:32.474Z,65.67
2022-12-16T14:26:22.315Z,61.40
2022-12-16T14:29:07.196Z,66.40
2022-12-16T14:31:56.193Z,60.83
2022-12-16T14:34:45.851Z,57.13
2022-12-16T14:37:32.845Z,62.60
2022-12-16T14:40:18.564Z,65.83
2022-12-16T14:43:12.987Z,59.53
2022-12-16T14:46:06.227Z,57.97
2022-12-16T14:48:55.289Z,60.57
2022-12-16T14:51:46.100Z,53.63
2022-12-16T14:54:45.866Z,61.57
2022-12-16T14:57:36.299Z,56.63
2022-12-16T15:00:32.241Z,52.00
2022-12-16T15:03:24.120Z,56.23
2022-12-16T15:06:11.189Z,53.77
2022-12-16T15:09:10.276Z,53.73
2022-12-16T15:11:57.462Z,54.93
2022-12-16T15:14:45.538Z,50.73
2022-12-16T15:17:39.431Z,52.67
2022-12-16T15:20:35.727Z,57.00
2022-12-16T15:23:21.151Z,65.10
2022-12-16T15:26:13.739Z,56.30
2022-12-16T15:29:01.509Z,59.40
2022-12-16T15:31:51.635Z,56.67
2022-12-16T15:34:47.884Z,58.43
2022-12-16T15:37:39.850Z,54.23
2022-12-16T15:40:38.865Z,51.50
2022-12-16T15:43:24.346Z,53.07
2022-12-16T15:46:10.717Z,50.23
2022-12-16T15:48:56.213Z,57.97
2022-12-16T15:51:48.645Z,51.03
2022-12-16T15:54:36.573Z,52.03
2022-12-16T15:57:22.435Z,50.20
2022-12-16T16:00:14.934Z,53.03
2022-12-16T16:03:06.077Z,68.13
2022-12-16T16:05:54.112Z,61.63
2022-12-16T16:08:40.764Z,65.13
2022-12-16T16:11:26.805Z,67.27
2022-12-16T16:14:14.318Z,71.60
2022-12-16T16:16:59.763Z,65.70
2022-12-16T16:19:46.003Z,65.30
2022-12-16T16:22:33.136Z,60.47
2022-12-16T16:25:20.027Z,51.80
2022-12-16T16:28:05.512Z,57.07
2022-12-16T16:30:50.755Z,60.33
2022-12-16T16:33:36.115Z,66.67
2022-12-16T16:36:32.053Z,61.87
2022-12-16T16:39:17.443Z,47.87
2022-12-16T16:42:04.300Z,50.10
2022-12-16T16:44:49.698Z,50.63
2022-12-16T16:47:36.098Z,41.40
2022-12-16T16:50:21.642Z,41.07
2022-12-16T16:53:07.044Z,39.63
2022-12-16T16:55:52.161Z,42.67
2022-12-16T16:58:44.372Z,41.73
2022-12-16T17:01:31.722Z,42.03
2022-12-16T17:04:17.082Z,42.27
2022-12-16T17:07:01.566Z,44.53
2022-12-16T17:09:46.689Z,43.47
2022-12-16T17:12:37.476Z,44.83
2022-12-16T17:15:45.739Z,44.43
2022-12-16T17:18:30.849Z,39.13
2022-12-16T17:21:16.085Z,43.03
2022-12-16T17:24:01.130Z,46.50
2022-12-16T17:26:46.591Z,34.73
2022-12-16T17:29:40.891Z,34.37
2022-12-16T17:32:36.139Z,40.03
2022-12-16T17:35:21.583Z,42.03
2022-12-16T17:38:07.129Z,41.73
2022-12-16T17:40:52.475Z,37.30
2022-12-16T17:43:40.856Z,41.87
2022-12-16T17:46:30.036Z,42.77
2022-12-16T17:49:17.480Z,41.20
2022-12-16T17:52:03.296Z,45.80
2022-12-16T17:54:48.475Z,47.13
2022-12-16T17:57:33.966Z,45.47
2022-12-16T18:00:19.421Z,46.17
2022-12-16T18:03:05.035Z,44.17
2022-12-16T18:05:51.895Z,46.33
2022-12-16T18:08:37.357Z,39.83
2022-12-16T18:11:22.595Z,50.23
2022-12-16T18:14:07.659Z,47.70
2022-12-16T18:16:52.737Z,42.17
2022-12-16T18:19:38.116Z,51.30
2022-12-16T18:22:24.770Z,55.00
2022-12-16T18:25:10.192Z,50.97
2022-12-16T18:27:55.809Z,56.10
2022-12-16T18:30:41.144Z,56.30
2022-12-16T18:33:26.995Z,57.13
2022-12-16T18:36:12.535Z,57.70
2022-12-16T18:38:59.416Z,54.03
2022-12-16T18:41:44.771Z,60.83
2022-12-16T18:44:32.265Z,54.63
2022-12-16T18:47:18.218Z,56.13
2022-12-16T18:50:03.694Z,57.20
2022-12-16T18:52:48.881Z,58.90
2022-12-16T18:55:35.489Z,53.60
2022-12-16T18:58:49.742Z,52.40
2022-12-16T19:01:28.164Z,52.23
2022-12-16T19:04:14.465Z,62.20
2022-12-16T19:07:00.044Z,57.60
2022-12-16T19:09:45.536Z,58.73
2022-12-16T19:12:32.000Z,59.93
2022-12-16T19:15:17.399Z,59.47
2022-12-16T19:18:02.904Z,54.13
2022-12-16T19:20:47.833Z,49.03
2022-12-16T19:23:33.920Z,44.77
2022-12-16T19:26:25.750Z,47.00
2022-12-16T19:29:12.563Z,48.40
2022-12-16T19:31:57.869Z,49.10
2022-12-16T19:34:51.511Z,62.50
2022-12-16T19:37:37.050Z,63.57
2022-12-16T19:40:22.449Z,62.37
2022-12-16T19:43:07.965Z,63.73
2022-12-16T19:48:59.878Z,57.60
2022-12-16T19:51:45.515Z,57.77
2022-12-16T19:54:31.196Z,59.33
2022-12-16T19:57:16.740Z,59.60
2022-12-16T20:00:01.850Z,59.00
2022-12-16T20:02:58.235Z,58.70
2022-12-16T20:05:43.456Z,57.10
2022-12-16T20:08:28.721Z,54.63
2022-12-16T20:11:13.998Z,49.30
2022-12-16T20:13:59.148Z,56.13
2022-12-16T20:16:45.914Z,52.07
2022-12-16T20:19:32.234Z,51.03
2022-12-16T20:22:17.558Z,58.33
2022-12-16T20:25:02.751Z,60.30
2022-12-16T20:27:47.867Z,55.93
2022-12-16T20:30:33.355Z,55.47
2022-12-16T20:33:18.824Z,61.47
2022-12-16T20:36:15.303Z,58.30
2022-12-16T20:38:56.965Z,62.10
2022-12-16T20:41:42.496Z,56.80
2022-12-16T20:44:30.284Z,59.97
2022-12-16T20:47:15.664Z,60.37
2022-12-16T20:50:01.107Z,60.00
2022-12-16T20:52:47.524Z,58.73
2022-12-16T20:55:33.299Z,57.50
2022-12-16T20:58:18.605Z,55.97
2022-12-16T21:01:03.781Z,54.40
2022-12-16T21:03:49.027Z,58.47
2022-12-16T21:06:34.369Z,57.57
2022-12-16T21:09:20.966Z,52.03
2022-12-16T21:12:06.022Z,59.13
2022-12-16T21:14:51.655Z,61.03
2022-12-16T21:17:37.054Z,58.03
2022-12-16T21:20:22.908Z,62.90
2022-12-16T21:23:15.178Z,59.33
2022-12-16T21:26:01.914Z,56.83
2022-12-16T21:28:46.989Z,61.23
2022-12-16T21:31:32.448Z,56.23
2022-12-16T21:34:17.567Z,60.87
2022-12-16T21:37:02.843Z,62.97
2022-12-16T21:39:48.073Z,57.03
2022-12-16T21:42:36.732Z,60.60
2022-12-16T21:45:23.750Z,66.33
2022-12-16T21:48:11.572Z,64.40
2022-12-16T21:50:56.998Z,62.30
2022-12-16T21:53:42.781Z,57.97
2022-12-16T21:56:28.289Z,58.50
2022-12-16T21:59:14.634Z,66.60
2022-12-16T22:01:59.763Z,67.33
2022-12-16T22:04:45.013Z,61.53
2022-12-16T22:07:30.446Z,60.03
2022-12-16T22:10:15.878Z,68.33
2022-12-16T22:13:01.175Z,65.03
2022-12-16T22:15:47.682Z,68.17
2022-12-16T22:18:35.041Z,70.53
2022-12-16T22:21:23.187Z,63.20
2022-12-16T22:24:09.081Z,61.37
2022-12-16T22:26:54.864Z,74.10
2022-12-16T22:29:41.673Z,66.50
2022-12-16T22:32:28.439Z,70.77
2022-12-16T22:35:13.905Z,75.13
2022-12-16T22:36:20.247Z,66.77
2022-12-16T22:37:59.069Z,69.13
2022-12-16T22:40:40.701Z,71.47
2022-12-16T22:43:25.816Z,78.20
2022-12-16T22:46:17.096Z,74.33
2022-12-16T22:49:04.461Z,71.97
2022-12-16T22:51:49.630Z,70.80
2022-12-16T22:54:43.051Z,77.50
2022-12-16T22:57:28.153Z,75.47
2022-12-16T23:00:13.268Z,61.90
2022-12-16T23:02:58.412Z,62.20
2022-12-16T23:05:44.890Z,59.93
2022-12-16T23:08:30.090Z,62.57
2022-12-16T23:11:16.806Z,57.83
2022-12-16T23:14:02.277Z,49.90
2022-12-16T23:16:47.821Z,60.23
2022-12-16T23:19:33.372Z,50.50
2022-12-16T23:22:19.758Z,48.27
2022-12-16T23:25:05.126Z,47.00
2022-12-16T23:27:50.350Z,58.80
2022-12-16T23:30:35.670Z,51.30
2022-12-16T23:33:21.666Z,43.77
2022-12-16T23:36:06.986Z,49.10
2022-12-16T23:38:53.467Z,50.10
2022-12-16T23:41:38.714Z,57.17
2022-12-16T23:44:29.369Z,53.43
2022-12-16T23:47:14.838Z,52.33
2022-12-16T23:50:00.165Z,48.70
2022-12-16T23:52:45.500Z,58.17
2022-12-16T23:55:32.081Z,56.70
2022-12-16T23:58:17.901Z,55.10
